QFA407 YMML-YSSY
Flight info
| Callsign | QFA407 |
|---|---|
| Flight time | N/A |
| Altitude | 37000 |
| Route | DOSEL2/34 DOSEL Y59 RIVET RIVET4/16R |
| Aircraft | A346/H-SDE2E3FGHIJ3J4J5M1RWXY/LB1D1 |
Departure
| Time | N/A |
|---|---|
| Airport | Melbourne Airport (YMML) |
Arrival
| Time | 2026-05-05 11:16 |
|---|---|
| Airport | Sydney Kingsford Smith International Airport (YSSY) |
| Time | Latitude | Longitude | Altitude | Speed | Heading |
|---|---|---|---|---|---|
| 2026-05-05 11:13 | -33.83671 | 151.14695 | 1901 ft | 154 kts | 165° |
| 2026-05-05 11:14 | -33.84469 | 151.14947 | 1737 ft | 153 kts | 166° |
| 2026-05-05 11:14 | -33.85543 | 151.15243 | 1544 ft | 158 kts | 168° |
| 2026-05-05 11:14 | -33.86591 | 151.15514 | 1299 ft | 146 kts | 168° |
| 2026-05-05 11:14 | -33.87557 | 151.15762 | 1102 ft | 139 kts | 168° |
| 2026-05-05 11:15 | -33.88514 | 151.16009 | 954 ft | 140 kts | 168° |
| 2026-05-05 11:15 | -33.89472 | 151.16259 | 768 ft | 141 kts | 169° |
| 2026-05-05 11:15 | -33.90455 | 151.16514 | 583 ft | 146 kts | 169° |
| 2026-05-05 11:15 | -33.91417 | 151.16765 | 363 ft | 140 kts | 169° |
| 2026-05-05 11:16 | -33.92387 | 151.17018 | 167 ft | 139 kts | 170° |
| 2026-05-05 11:16 | -33.93329 | 151.17263 | 39 ft | 127 kts | 168° |
| 2026-05-05 11:16 | -33.93934 | 151.17418 | 35 ft | 51 kts | 168° |
| 2026-05-05 11:16 | -33.94144 | 151.17470 | 36 ft | 27 kts | 167° |
| 2026-05-05 11:17 | -33.94323 | 151.17543 | 38 ft | 28 kts | 154° |
| 2026-05-05 11:17 | -33.94414 | 151.17614 | 38 ft | 0 kts | 143° |
| 2026-05-05 11:18 | -33.94422 | 151.17622 | 38 ft | 3 kts | 143° |
| 2026-05-05 11:19 | -33.94448 | 151.17645 | 38 ft | 6 kts | 142° |
| 2026-05-05 11:19 | -33.94492 | 151.17687 | 38 ft | 10 kts | 139° |
| 2026-05-05 11:19 | -33.94509 | 151.17763 | 38 ft | 10 kts | 61° |
| 2026-05-05 11:19 | -33.94448 | 151.17768 | 38 ft | 11 kts | 352° |
| 2026-05-05 11:20 | -33.94360 | 151.17744 | 38 ft | 15 kts | 346° |
| 2026-05-05 11:20 | -33.94247 | 151.17709 | 38 ft | 19 kts | 346° |
| 2026-05-05 11:20 | -33.94215 | 151.17699 | 38 ft | 0 kts | 345° |
| 2026-05-05 11:21 | -33.94201 | 151.17695 | 38 ft | 4 kts | 345° |
| 2026-05-05 11:21 | -33.94161 | 151.17683 | 37 ft | 8 kts | 345° |
| 2026-05-05 11:21 | -33.94094 | 151.17662 | 37 ft | 12 kts | 346° |
| 2026-05-05 11:21 | -33.93997 | 151.17637 | 37 ft | 16 kts | 348° |
| 2026-05-05 11:22 | -33.93875 | 151.17605 | 37 ft | 19 kts | 347° |
| 2026-05-05 11:22 | -33.93733 | 151.17567 | 37 ft | 22 kts | 348° |
| 2026-05-05 11:22 | -33.93570 | 151.17525 | 37 ft | 25 kts | 348° |
| 2026-05-05 11:22 | -33.93516 | 151.17512 | 38 ft | 1 kts | 348° |
| 2026-05-05 11:23 | -33.93498 | 151.17507 | 38 ft | 4 kts | 348° |
| 2026-05-05 11:23 | -33.93459 | 151.17500 | 38 ft | 7 kts | 359° |
| 2026-05-05 11:23 | -33.93396 | 151.17507 | 38 ft | 11 kts | 356° |
| 2026-05-05 11:23 | -33.93310 | 151.17485 | 38 ft | 14 kts | 347° |
| 2026-05-05 11:24 | -33.93196 | 151.17455 | 38 ft | 18 kts | 348° |
| 2026-05-05 11:24 | -33.93090 | 151.17428 | 39 ft | 0 kts | 348° |
| 2026-05-05 11:24 | -33.93083 | 151.17426 | 39 ft | 2 kts | 348° |
| 2026-05-05 11:24 | -33.93055 | 151.17419 | 39 ft | 6 kts | 348° |
| 2026-05-05 11:25 | -33.93008 | 151.17415 | 39 ft | 8 kts | 21° |
| 2026-05-05 11:25 | -33.92995 | 151.17479 | 39 ft | 10 kts | 91° |
| 2026-05-05 11:25 | -33.93007 | 151.17573 | 38 ft | 11 kts | 121° |
| 2026-05-05 11:25 | -33.93089 | 151.17621 | 38 ft | 15 kts | 167° |
| 2026-05-05 11:26 | -33.93096 | 151.17623 | 38 ft | 0 kts | 168° |